createdAt,value
2022-11-22T00:01:12.572Z,55.07
2022-11-22T00:06:15.933Z,56.23
2022-11-22T00:11:18.989Z,56.17
2022-11-22T00:16:21.947Z,55.30
2022-11-22T00:21:25.011Z,53.57
2022-11-22T00:26:28.199Z,54.73
2022-11-22T00:31:31.595Z,55.40
2022-11-22T00:36:34.786Z,55.70
2022-11-22T00:41:37.923Z,57.23
2022-11-22T00:46:41.157Z,58.20
2022-11-22T00:51:44.169Z,59.70
2022-11-22T00:56:47.610Z,61.00
2022-11-22T01:01:50.466Z,60.93
2022-11-22T01:06:53.751Z,58.47
2022-11-22T01:11:56.553Z,59.20
2022-11-22T01:16:59.361Z,57.43
2022-11-22T01:22:02.450Z,56.67
2022-11-22T01:27:05.493Z,57.00
2022-11-22T01:32:08.534Z,57.17
2022-11-22T01:37:11.509Z,58.00
2022-11-22T01:42:14.637Z,58.83
2022-11-22T01:47:24.008Z,59.43
2022-11-22T01:52:31.774Z,57.20
2022-11-22T01:57:36.574Z,59.33
2022-11-22T02:02:39.592Z,58.30
2022-11-22T02:07:51.095Z,61.93
2022-11-22T02:12:55.151Z,60.83
2022-11-22T02:17:58.340Z,57.27
2022-11-22T02:23:09.726Z,58.80
2022-11-22T02:28:13.944Z,56.40
2022-11-22T02:33:17.160Z,62.03
2022-11-22T02:38:23.191Z,56.80
2022-11-22T02:43:38.698Z,57.47
2022-11-22T02:48:42.822Z,65.73
2022-11-22T02:53:50.663Z,58.33
2022-11-22T02:58:53.898Z,58.20
2022-11-22T03:03:56.948Z,61.67
2022-11-22T03:09:00.086Z,60.60
2022-11-22T03:14:03.129Z,61.27
2022-11-22T03:19:05.966Z,61.53
2022-11-22T03:24:09.094Z,60.13
2022-11-22T03:29:12.225Z,59.13
2022-11-22T03:34:15.406Z,62.40
2022-11-22T03:39:18.368Z,60.70
2022-11-22T03:44:21.208Z,59.40
2022-11-22T03:49:24.190Z,59.10
2022-11-22T03:54:27.222Z,56.37
2022-11-22T03:59:30.485Z,58.47
2022-11-22T04:04:33.705Z,57.33
2022-11-22T04:09:36.722Z,58.37
2022-11-22T04:14:58.396Z,58.23
2022-11-22T04:20:21.154Z,59.13
2022-11-22T04:25:25.802Z,57.87
2022-11-22T04:30:48.934Z,60.67
2022-11-22T04:35:52.605Z,57.13
2022-11-22T04:40:55.556Z,55.67
2022-11-22T04:45:58.570Z,57.67
2022-11-22T04:51:20.052Z,57.30
2022-11-22T04:56:22.972Z,55.47
2022-11-22T05:01:25.959Z,56.70
2022-11-22T05:06:29.019Z,55.47
2022-11-22T05:11:32.196Z,55.63
2022-11-22T05:16:35.346Z,55.77
2022-11-22T05:21:38.377Z,59.47
2022-11-22T05:26:42.375Z,59.00
2022-11-22T05:31:50.973Z,61.00
2022-11-22T05:36:54.607Z,59.17
2022-11-22T05:41:57.790Z,57.83
2022-11-22T05:47:00.743Z,60.77
2022-11-22T05:52:04.367Z,56.23
2022-11-22T05:57:07.304Z,57.07
2022-11-22T06:02:10.223Z,55.17
2022-11-22T06:07:13.506Z,54.67
2022-11-22T06:12:16.518Z,54.43
2022-11-22T06:17:19.331Z,55.30
2022-11-22T06:22:22.251Z,52.00
2022-11-22T06:27:25.369Z,51.67
2022-11-22T06:32:28.305Z,54.30
2022-11-22T06:37:31.105Z,51.53
2022-11-22T06:42:33.875Z,50.07
2022-11-22T06:47:36.974Z,50.90
2022-11-22T06:52:39.876Z,51.90
2022-11-22T06:57:42.902Z,53.03
2022-11-22T07:02:46.242Z,51.50
2022-11-22T07:07:49.263Z,55.33
2022-11-22T07:12:53.256Z,53.90
2022-11-22T07:17:56.060Z,51.10
2022-11-22T07:22:58.843Z,52.33
2022-11-22T07:28:01.551Z,51.60
2022-11-22T07:33:04.277Z,51.00
2022-11-22T07:38:07.357Z,57.47
2022-11-22T07:43:10.690Z,53.87
2022-11-22T07:48:15.096Z,53.27
2022-11-22T07:53:18.558Z,52.50
2022-11-22T07:58:21.462Z,56.53
2022-11-22T08:03:28.585Z,56.37
2022-11-22T08:08:33.186Z,55.57
2022-11-22T08:13:36.201Z,56.33
2022-11-22T08:18:39.858Z,58.20
2022-11-22T08:23:43.757Z,58.40
2022-11-22T08:28:46.808Z,57.63
2022-11-22T08:33:53.253Z,58.67
2022-11-22T08:38:56.439Z,164.77
2022-11-22T08:43:59.438Z,60.80
2022-11-22T08:49:04.182Z,64.40
2022-11-22T08:54:07.064Z,57.03
2022-11-22T08:59:10.247Z,61.70
2022-11-22T09:04:13.955Z,67.40
2022-11-22T09:14:40.881Z,58.87
2022-11-22T09:19:44.585Z,62.03
2022-11-22T09:24:47.542Z,60.97
2022-11-22T09:29:52.832Z,60.10
2022-11-22T09:34:58.417Z,59.73
2022-11-22T09:40:01.072Z,57.30
2022-11-22T09:45:26.042Z,56.73
2022-11-22T09:50:31.720Z,74.27
2022-11-22T09:55:44.582Z,53.23
2022-11-22T10:00:51.954Z,48.30
2022-11-22T10:05:58.390Z,46.63
2022-11-22T10:11:01.920Z,48.20
2022-11-22T10:16:14.871Z,55.13
2022-11-22T10:21:19.868Z,48.77
2022-11-22T10:26:26.711Z,53.43
2022-11-22T10:31:41.989Z,54.13
2022-11-22T10:36:53.864Z,48.53
2022-11-22T10:42:16.905Z,45.40
2022-11-22T10:47:38.626Z,45.83
2022-11-22T10:53:02.889Z,47.43
2022-11-22T10:58:33.553Z,48.30
2022-11-22T11:03:44.296Z,41.50
2022-11-22T11:14:59.817Z,38.20
2022-11-22T11:20:11.759Z,39.30
2022-11-22T11:25:35.374Z,43.50
2022-11-22T11:30:48.837Z,46.40
2022-11-22T11:35:55.993Z,40.43
2022-11-22T11:41:11.623Z,39.37
2022-11-22T11:46:23.125Z,43.83
2022-11-22T11:51:38.438Z,43.97
2022-11-22T11:56:57.965Z,45.77
2022-11-22T12:02:30.649Z,46.00
2022-11-22T12:07:34.075Z,50.13
2022-11-22T12:12:36.958Z,58.23
2022-11-22T12:17:50.661Z,48.77
2022-11-22T12:23:18.821Z,46.07
2022-11-22T12:28:24.219Z,47.57
2022-11-22T12:34:03.912Z,50.03
2022-11-22T12:39:10.464Z,50.67
2022-11-22T12:44:17.549Z,46.67
2022-11-22T12:49:35.161Z,47.53
2022-11-22T12:55:04.585Z,49.03
2022-11-22T13:00:15.422Z,49.83
2022-11-22T13:05:24.258Z,49.73
2022-11-22T13:10:49.371Z,49.70
2022-11-22T13:15:53.880Z,49.53
2022-11-22T13:21:30.987Z,54.67
2022-11-22T13:27:05.059Z,50.97
2022-11-22T13:32:14.094Z,48.93
2022-11-22T13:37:17.664Z,52.80
2022-11-22T13:42:28.363Z,59.73
2022-11-22T13:47:37.110Z,49.40
2022-11-22T13:52:54.097Z,48.07
2022-11-22T13:58:25.827Z,47.07
2022-11-22T14:03:41.953Z,52.40
2022-11-22T14:08:48.386Z,45.50
2022-11-22T14:14:02.063Z,58.77
2022-11-22T14:19:23.957Z,42.87
2022-11-22T14:24:50.311Z,42.83
2022-11-22T14:30:08.981Z,43.73
2022-11-22T14:35:22.485Z,43.17
2022-11-22T14:40:33.629Z,41.07
2022-11-22T14:45:48.302Z,44.13
2022-11-22T14:51:05.380Z,50.20
2022-11-22T14:56:23.402Z,43.43
2022-11-22T15:01:42.616Z,44.20
2022-11-22T15:09:17.682Z,42.73
2022-11-22T15:13:15.963Z,43.37
2022-11-22T16:02:22.512Z,39.57
2022-11-22T16:07:30.579Z,37.27
2022-11-22T16:12:39.934Z,39.03
2022-11-22T16:17:53.813Z,37.70
2022-11-22T16:23:09.840Z,40.73
2022-11-22T16:28:34.793Z,38.37
2022-11-22T16:33:37.929Z,37.33
2022-11-22T16:38:41.665Z,36.67
2022-11-22T16:43:44.955Z,32.03
2022-11-22T16:48:47.751Z,31.40
2022-11-22T16:53:51.480Z,44.50
2022-11-22T16:58:56.267Z,30.80
2022-11-22T17:03:59.722Z,33.23
2022-11-22T17:09:03.974Z,30.30
2022-11-22T17:14:07.498Z,30.83
2022-11-22T17:19:30.251Z,29.63
2022-11-22T17:24:34.058Z,32.87
2022-11-22T17:29:52.409Z,33.00
2022-11-22T17:34:55.827Z,31.60
2022-11-22T17:39:59.057Z,33.57
2022-11-22T17:45:01.981Z,29.70
2022-11-22T17:50:05.572Z,31.17
2022-11-22T17:55:14.080Z,32.30
2022-11-22T18:00:17.913Z,31.43
2022-11-22T18:05:21.128Z,32.67
2022-11-22T18:10:23.991Z,29.67
2022-11-22T18:15:26.906Z,32.10
2022-11-22T18:20:29.962Z,33.33
2022-11-22T18:25:32.801Z,36.17
2022-11-22T18:30:35.703Z,34.67
2022-11-22T18:35:41.320Z,32.53
2022-11-22T18:40:47.405Z,35.73
2022-11-22T18:45:50.255Z,29.67
2022-11-22T18:50:53.017Z,28.77
2022-11-22T18:55:56.011Z,32.07
2022-11-22T19:01:00.870Z,31.23
2022-11-22T19:06:24.990Z,35.27
2022-11-22T19:11:29.478Z,37.10
2022-11-22T19:16:32.425Z,40.90
2022-11-22T19:21:35.303Z,32.23
2022-11-22T19:26:38.224Z,31.67
2022-11-22T19:31:41.219Z,37.40
2022-11-22T19:36:44.256Z,38.77
2022-11-22T19:41:47.525Z,41.37
2022-11-22T19:46:50.531Z,44.13
2022-11-22T19:51:53.745Z,39.53
2022-11-22T19:56:56.609Z,34.57
2022-11-22T20:01:59.549Z,37.47
2022-11-22T20:07:03.833Z,41.73
2022-11-22T20:12:06.860Z,43.03
2022-11-22T20:17:09.721Z,37.23
2022-11-22T20:22:12.836Z,36.43
2022-11-22T20:27:21.647Z,35.33
2022-11-22T20:32:29.036Z,32.40
2022-11-22T20:37:32.077Z,29.50
2022-11-22T20:42:35.464Z,31.70
2022-11-22T20:47:38.186Z,32.97
2022-11-22T20:52:41.196Z,30.00
2022-11-22T20:57:44.205Z,30.50
2022-11-22T21:02:47.097Z,31.63
2022-11-22T21:07:50.212Z,29.03
2022-11-22T21:12:53.607Z,28.70
2022-11-22T21:18:23.549Z,31.20
2022-11-22T21:23:21.578Z,29.47
2022-11-22T21:28:24.587Z,31.23
2022-11-22T21:33:27.795Z,30.47
2022-11-22T21:38:31.427Z,29.23
2022-11-22T21:43:34.837Z,28.23
2022-11-22T21:48:37.754Z,29.47
2022-11-22T21:53:41.070Z,28.90
2022-11-22T21:58:44.262Z,30.63
2022-11-22T22:03:47.571Z,29.80
2022-11-22T22:08:50.626Z,29.43
2022-11-22T22:13:58.362Z,29.50
2022-11-22T22:19:03.429Z,30.93
2022-11-22T22:24:11.696Z,30.83
2022-11-22T22:29:14.532Z,28.83
2022-11-22T22:34:18.484Z,29.53
2022-11-22T22:39:21.755Z,30.37
2022-11-22T22:44:24.829Z,30.57
2022-11-22T22:49:29.200Z,28.40
2022-11-22T22:54:32.748Z,28.70
2022-11-22T22:59:36.135Z,27.33
2022-11-22T23:04:41.030Z,26.83
2022-11-22T23:09:44.136Z,27.60
2022-11-22T23:14:47.216Z,27.00
2022-11-22T23:19:50.315Z,28.03
2022-11-22T23:24:53.339Z,27.83
2022-11-22T23:29:56.410Z,26.90
2022-11-22T23:34:59.259Z,27.00
2022-11-22T23:40:02.289Z,27.50
2022-11-22T23:45:05.669Z,27.27
2022-11-22T23:50:09.006Z,26.90
2022-11-22T23:55:11.981Z,27.00
